Terminal Aerodrome Forecast
Issued by NWS

Home | Current Version | Previous Version | Text Only | Print | Product List | Glossary On
Versions: 1 2 3 4 5 6 7 8 9 10 11 12 13 14 15 16 17 18 19 20 21
000
FTUS41 KPBZ 212320
TAFFKL
TAF
KFKL 212320Z 2200/2224 22008KT P6SM BKN150
     FM220400 24008KT P6SM -SHRA OVC025
     FM220700 28007KT 2SM -SHSN OVC008
     FM221100 29007KT P6SM VCSH OVC015
     FM221700 29007KT P6SM BKN025=

USA.gov is the U.S. government's official web portal to all federal, state and local government web resources and services.